Time;durP1;ratioP1;P1;durP2;ratioP2;P2;SDS_P1;SDS_P2;PMS_P1;PMS_P2;Temp;Humidity;BMP_temperature;BMP_pressure;BME280_temperature;BME280_humidity;BME280_pressure;Samples;Min_cycle;Max_cycle;Signal;HPM_P1;HPM_P2
2023/01/07 00:01:47;;;;;;;13.83;4.60;;;6.00;58.10;;;;;;5033517;28;20472;-73
2023/01/07 00:04:14;;;;;;;5.70;4.93;;;6.00;51.00;;;;;;5033630;28;20453;-72
2023/01/07 00:06:42;;;;;;;4.47;4.07;;;5.90;44.60;;;;;;5032399;28;20755;-72
2023/01/07 00:09:11;;;;;;;8.10;3.70;;;6.00;45.20;;;;;;5032658;28;20425;-72
2023/01/07 00:11:39;;;;;;;6.63;3.87;;;5.90;39.30;;;;;;5033226;28;20452;-72
2023/01/07 00:14:11;;;;;;;6.90;4.83;;;5.90;45.30;;;;;;5031541;28;20930;-73
2023/01/07 00:16:38;;;;;;;6.27;3.90;;;5.90;41.40;;;;;;5032726;28;20410;-73
2023/01/07 00:19:06;;;;;;;6.00;4.20;;;5.90;45.60;;;;;;5032137;28;20416;-72
2023/01/07 00:21:32;;;;;;;8.00;4.07;;;6.00;39.10;;;;;;5031415;28;20407;-73
2023/01/07 00:24:00;;;;;;;11.10;4.93;;;6.00;53.40;;;;;;5032645;28;20425;-73
2023/01/07 00:26:29;;;;;;;4.33;3.93;;;6.00;47.10;;;;;;5032369;28;20159;-73
2023/01/07 00:28:56;;;;;;;9.83;4.27;;;5.90;42.90;;;;;;5038683;28;20492;-72
2023/01/07 00:31:31;;;;;;;9.93;4.63;;;6.00;47.80;;;;;;5051881;28;20390;-73
2023/01/07 00:36:27;;;;;;;5.50;4.27;;;6.00;50.70;;;;;;5041043;28;20462;-72
2023/01/07 00:39:03;;;;;;;11.37;4.10;;;6.00;54.00;;;;;;5032894;28;20441;-72
2023/01/07 00:41:29;;;;;;;10.73;4.50;;;6.10;50.30;;;;;;5032552;28;20402;-73
2023/01/07 00:43:55;;;;;;;4.23;3.60;;;6.00;52.30;;;;;;5031308;28;20415;-72
2023/01/07 00:46:21;;;;;;;5.87;4.60;;;6.00;48.50;;;;;;5031878;28;20193;-72
2023/01/07 00:48:48;;;;;;;8.50;4.30;;;6.00;51.50;;;;;;5032779;28;20444;-73
2023/01/07 00:51:15;;;;;;;10.70;4.67;;;6.00;53.90;;;;;;5032991;28;20398;-72
2023/01/07 00:53:41;;;;;;;6.90;3.70;;;6.00;56.40;;;;;;5032638;28;20394;-72
2023/01/07 00:56:09;;;;;;;4.70;4.30;;;6.10;59.30;;;;;;5031855;28;20880;-73
2023/01/07 00:58:34;;;;;;;7.97;4.30;;;6.10;55.20;;;;;;5032852;28;20426;-72
2023/01/07 01:01:01;;;;;;;6.83;4.40;;;6.10;62.70;;;;;;5031713;28;20449;-73
2023/01/07 01:03:29;;;;;;;9.00;4.73;;;6.20;64.70;;;;;;5052457;28;20175;-72
2023/01/07 01:06:18;;;;;;;4.57;4.17;;;6.20;65.30;;;;;;5044320;28;20491;-72
2023/01/07 01:08:45;;;;;;;6.67;5.20;;;6.30;63.20;;;;;;5032759;28;20426;-72
2023/01/07 01:11:12;;;;;;;8.67;5.10;;;6.30;63.80;;;;;;5032822;28;20564;-73
2023/01/07 01:13:39;;;;;;;8.30;4.60;;;6.30;61.20;;;;;;5032588;28;20399;-72
2023/01/07 01:16:13;;;;;;;9.47;4.73;;;6.30;60.20;;;;;;5031147;28;20461;-73
2023/01/07 01:18:39;;;;;;;11.47;5.83;;;6.30;52.30;;;;;;5032230;28;20409;-72
2023/01/07 01:21:07;;;;;;;18.80;6.80;;;6.30;44.90;;;;;;5032552;28;20407;-72
2023/01/07 01:23:33;;;;;;;7.27;5.50;;;6.40;45.50;;;;;;5032610;28;20589;-73
2023/01/07 01:26:07;;;;;;;5.70;5.07;;;6.30;42.30;;;;;;5031677;28;20802;-73
2023/01/07 01:28:33;;;;;;;13.83;6.57;;;6.30;33.80;;;;;;5032335;28;20810;-72
2023/01/07 01:30:59;;;;;;;13.53;7.50;;;6.30;31.50;;;;;;5031253;28;20420;-72
2023/01/07 01:33:24;;;;;;;10.10;6.30;;;6.30;29.70;;;;;;5032417;28;20403;-72
2023/01/07 01:35:50;;;;;;;6.37;5.77;;;6.30;29.60;;;;;;5031196;28;20202;-73
2023/01/07 01:38:16;;;;;;;9.30;6.00;;;6.40;29.60;;;;;;5030337;28;20182;-72
2023/01/07 01:40:41;;;;;;;11.03;5.97;;;6.30;29.60;;;;;;5031483;28;20694;-73
2023/01/07 01:43:25;;;;;;;10.27;6.93;;;6.30;28.20;;;;;;5033463;28;20176;-72
2023/01/07 01:45:51;;;;;;;9.40;6.73;;;6.30;28.90;;;;;;5034781;28;20794;-73
2023/01/07 01:48:18;;;;;;;15.00;8.40;;;6.30;26.10;;;;;;5035818;28;20417;-73
2023/01/07 01:50:47;;;;;;;12.20;6.30;;;6.30;27.10;;;;;;5035860;28;20418;-72
2023/01/07 01:53:14;;;;;;;10.93;8.00;;;6.30;29.60;;;;;;5035675;28;20402;-72
2023/01/07 01:55:47;;;;;;;10.67;7.40;;;6.30;29.60;;;;;;5034026;28;20549;-73
2023/01/07 01:58:17;;;;;;;7.90;6.77;;;6.40;29.70;;;;;;5034643;28;20425;-72
2023/01/07 02:00:43;;;;;;;13.57;8.13;;;6.40;33.60;;;;;;5034685;28;20411;-72
2023/01/07 02:03:14;;;;;;;8.90;8.00;;;6.40;29.60;;;;;;5035669;28;20410;-72
2023/01/07 02:05:41;;;;;;;10.77;7.47;;;6.40;29.60;;;;;;5034668;28;20520;-73
2023/01/07 02:08:07;;;;;;;14.10;7.47;;;6.40;28.60;;;;;;5035439;28;20406;-73
2023/01/07 02:10:34;;;;;;;11.90;7.20;;;6.40;29.60;;;;;;5035256;28;20569;-72
2023/01/07 02:13:33;;;;;;;18.50;9.33;;;6.40;26.20;;;;;;5034786;28;20402;-73
2023/01/07 02:16:07;;;;;;;15.10;7.20;;;6.40;25.80;;;;;;5033924;28;20481;-72
2023/01/07 02:19:25;;;;;;;16.53;7.63;;;6.40;28.60;;;;;;5034107;28;20405;-73
2023/01/07 02:22:22;;;;;;;8.93;6.80;;;6.40;29.70;;;;;;5053195;28;20417;-72
2023/01/07 02:25:03;;;;;;;12.07;7.40;;;6.40;27.50;;;;;;5033821;28;20955;-73
2023/01/07 02:28:03;;;;;;;14.53;7.40;;;6.40;29.50;;;;;;5033820;28;20476;-72
2023/01/07 02:30:47;;;;;;;8.40;7.53;;;6.30;29.00;;;;;;5034434;28;20425;-73
2023/01/07 02:33:45;;;;;;;14.50;8.60;;;6.30;29.40;;;;;;5034946;28;20822;-72
2023/01/07 02:36:25;;;;;;;11.93;8.37;;;6.30;29.60;;;;;;5032712;28;20488;-72
2023/01/07 02:39:12;;;;;;;14.83;9.20;;;6.30;33.40;;;;;;5035340;28;20526;-73
2023/01/07 02:41:57;;;;;;;11.10;7.70;;;6.30;35.20;;;;;;5034893;28;20399;-72
2023/01/07 02:45:03;;;;;;;17.17;7.97;;;6.40;46.20;;;;;;5033783;28;20488;-73
2023/01/07 02:47:56;;;;;;;12.20;7.90;;;6.40;48.10;;;;;;5031933;28;20430;-73
2023/01/07 02:50:22;;;;;;;12.90;8.83;;;6.40;49.10;;;;;;5034261;28;20422;-73
2023/01/07 02:52:48;;;;;;;17.33;9.17;;;6.50;51.60;;;;;;5033605;28;20387;-72
2023/01/07 02:55:51;;;;;;;12.93;8.80;;;6.50;59.10;;;;;;5032775;28;20204;-73
2023/01/07 02:58:48;;;;;;;12.63;9.53;;;6.50;56.30;;;;;;5034717;28;20183;-73
2023/01/07 03:01:22;;;;;;;16.37;9.50;;;6.50;64.50;;;;;;5034372;28;20426;-73
2023/01/07 03:04:12;;;;;;;15.83;9.13;;;6.60;63.40;;;;;;5034335;28;20405;-74
2023/01/07 03:07:22;;;;;;;14.00;10.03;;;6.60;67.90;;;;;;5033413;28;20498;-73
2023/01/07 03:10:15;;;;;;;20.80;11.10;;;6.60;78.60;;;;;;5033770;28;20449;-73
2023/01/07 03:12:41;;;;;;;16.67;9.67;;;6.60;78.60;;;;;;5034244;28;20412;-73
2023/01/07 03:15:14;;;;;;;21.67;10.47;;;6.70;78.70;;;;;;5033294;28;20454;-72
2023/01/07 03:18:25;;;;;;;16.10;10.40;;;6.80;84.00;;;;;;5033942;28;20167;-73
2023/01/07 03:20:55;;;;;;;19.90;10.57;;;6.80;80.90;;;;;;5033149;28;20406;-73
2023/01/07 03:23:25;;;;;;;16.30;10.50;;;6.80;89.80;;;;;;5034254;28;20415;-73
2023/01/07 03:25:52;;;;;;;17.33;11.53;;;6.80;91.40;;;;;;5032501;28;20946;-72
2023/01/07 03:28:23;;;;;;;21.27;11.80;;;6.90;94.30;;;;;;5032748;28;20410;-72
2023/01/07 03:30:51;;;;;;;21.73;10.93;;;6.90;96.60;;;;;;5041561;28;20949;-73
2023/01/07 03:33:24;;;;;;;20.00;11.30;;;7.00;97.20;;;;;;5046712;28;20441;-72
2023/01/07 03:35:52;;;;;;;18.00;11.90;;;7.00;99.90;;;;;;5047647;28;20483;-72
2023/01/07 03:38:21;;;;;;;19.33;11.13;;;7.00;99.90;;;;;;5052370;28;20416;-72
2023/01/07 03:40:47;;;;;;;19.97;12.07;;;7.10;99.90;;;;;;5052380;28;20944;-73
2023/01/07 03:43:16;;;;;;;19.70;12.00;;;7.10;99.90;;;;;;5053119;28;20402;-73
2023/01/07 03:45:42;;;;;;;24.90;13.07;;;7.20;99.90;;;;;;5036203;28;20819;-73
2023/01/07 03:48:08;;;;;;;23.80;12.97;;;7.20;99.90;;;;;;5033653;28;20417;-73
2023/01/07 03:50:34;;;;;;;18.90;11.60;;;7.30;99.90;;;;;;5033704;28;20883;-73
2023/01/07 03:52:59;;;;;;;27.63;13.73;;;7.30;99.90;;;;;;5033421;28;20221;-73
2023/01/07 03:55:25;;;;;;;22.03;13.53;;;7.30;99.90;;;;;;5032461;28;20199;-73
2023/01/07 03:57:51;;;;;;;25.73;13.10;;;7.40;99.90;;;;;;5033212;28;20921;-72
2023/01/07 04:00:17;;;;;;;24.77;13.87;;;7.40;99.90;;;;;;5036716;28;20178;-72
2023/01/07 04:02:43;;;;;;;26.03;14.30;;;7.50;99.90;;;;;;5053419;28;20218;-73
2023/01/07 04:05:10;;;;;;;22.17;12.47;;;7.50;99.90;;;;;;5052250;28;20425;-73
2023/01/07 04:07:36;;;;;;;27.03;13.40;;;7.50;99.90;;;;;;5051857;28;20989;-73
2023/01/07 04:10:02;;;;;;;21.77;12.73;;;7.50;99.90;;;;;;5053397;28;20394;-73
2023/01/07 04:12:28;;;;;;;22.30;12.40;;;7.50;99.90;;;;;;5050866;28;20418;-74
2023/01/07 04:14:53;;;;;;;21.43;12.40;;;7.50;99.90;;;;;;5034251;28;20465;-74
2023/01/07 04:17:19;;;;;;;23.03;13.33;;;7.50;99.90;;;;;;5033238;28;20167;-73
2023/01/07 04:19:45;;;;;;;25.67;13.00;;;7.50;99.90;;;;;;5031322;28;20785;-73
2023/01/07 04:22:11;;;;;;;28.73;16.00;;;7.60;99.90;;;;;;5032985;28;20194;-73
2023/01/07 04:24:37;;;;;;;25.00;15.50;;;7.50;99.90;;;;;;5032316;28;20859;-72
2023/01/07 04:27:02;;;;;;;35.20;16.00;;;7.50;99.90;;;;;;5032891;28;20453;-73
2023/01/07 04:29:29;;;;;;;32.90;15.87;;;7.60;99.90;;;;;;5051692;28;20245;-74
2023/01/07 04:31:55;;;;;;;30.00;15.97;;;7.50;99.90;;;;;;5051774;28;20414;-74
2023/01/07 04:34:21;;;;;;;25.70;15.53;;;7.60;99.90;;;;;;5051799;28;20430;-74
2023/01/07 04:36:47;;;;;;;24.83;15.37;;;7.60;99.90;;;;;;5052260;28;20404;-73
2023/01/07 04:39:12;;;;;;;28.27;14.77;;;7.60;99.90;;;;;;5052870;28;20362;-74
2023/01/07 04:41:38;;;;;;;27.43;15.17;;;7.70;99.90;;;;;;5047561;28;20635;-73
2023/01/07 04:44:04;;;;;;;27.73;16.00;;;7.70;99.90;;;;;;5051593;28;20198;-73
2023/01/07 04:46:30;;;;;;;27.33;16.17;;;7.70;99.90;;;;;;5052094;28;20203;-73
2023/01/07 04:48:56;;;;;;;27.60;15.43;;;7.80;99.90;;;;;;5052784;28;20401;-74
2023/01/07 04:51:22;;;;;;;30.97;17.37;;;7.80;99.90;;;;;;5052666;28;20662;-74
2023/01/07 04:53:47;;;;;;;25.90;16.27;;;7.80;99.90;;;;;;5050918;28;20194;-74
2023/01/07 04:56:13;;;;;;;31.20;15.80;;;7.80;99.90;;;;;;5034714;28;20230;-73
2023/01/07 04:58:39;;;;;;;32.90;16.67;;;7.80;99.90;;;;;;5032904;28;20174;-72
2023/01/07 05:01:05;;;;;;;28.37;15.53;;;7.80;99.90;;;;;;5032776;28;20403;-72
2023/01/07 05:03:33;;;;;;;27.40;16.97;;;7.90;99.90;;;;;;5032691;28;20403;-73
2023/01/07 05:05:59;;;;;;;29.40;15.70;;;7.90;99.90;;;;;;5031828;28;20435;-72
2023/01/07 05:08:25;;;;;;;30.70;17.80;;;7.90;99.90;;;;;;5032732;28;20748;-73
2023/01/07 05:10:51;;;;;;;29.60;16.50;;;8.00;99.90;;;;;;5037578;28;20188;-73
2023/01/07 05:13:19;;;;;;;31.07;18.03;;;8.00;99.90;;;;;;5052198;28;20406;-73
2023/01/07 05:15:46;;;;;;;29.60;16.67;;;8.00;99.90;;;;;;5051442;28;20457;-73
2023/01/07 05:18:12;;;;;;;24.70;16.23;;;8.00;99.90;;;;;;5053018;28;20461;-72
2023/01/07 05:20:37;;;;;;;31.10;17.43;;;8.00;99.90;;;;;;5056517;28;20491;-72
2023/01/07 05:23:04;;;;;;;29.70;18.53;;;8.10;99.90;;;;;;5053050;28;20206;-72
2023/01/07 05:25:31;;;;;;;27.23;16.27;;;8.10;99.90;;;;;;5046032;28;20192;-73
2023/01/07 05:27:56;;;;;;;31.30;17.70;;;8.10;99.90;;;;;;5036305;28;20893;-73
2023/01/07 05:30:22;;;;;;;28.70;17.70;;;8.20;99.90;;;;;;5035662;28;20417;-73
2023/01/07 05:32:48;;;;;;;28.03;16.40;;;8.20;99.90;;;;;;5036264;28;20186;-74
2023/01/07 05:35:14;;;;;;;24.80;13.87;;;8.20;99.90;;;;;;5035220;28;20286;-73
2023/01/07 05:37:39;;;;;;;25.60;15.80;;;8.20;99.90;;;;;;5037722;28;20643;-73
2023/01/07 05:40:06;;;;;;;27.20;16.03;;;8.30;99.90;;;;;;5055155;28;20640;-76
2023/01/07 05:42:32;;;;;;;28.90;15.67;;;8.20;99.90;;;;;;5054802;28;20210;-74
2023/01/07 05:44:57;;;;;;;28.03;15.83;;;8.30;99.90;;;;;;5054880;28;20469;-73
2023/01/07 05:47:23;;;;;;;26.30;15.63;;;8.30;99.90;;;;;;5055886;28;20563;-73
2023/01/07 05:49:49;;;;;;;24.90;15.67;;;8.40;99.90;;;;;;5055117;28;20170;-74
2023/01/07 05:52:14;;;;;;;25.57;15.80;;;8.40;99.90;;;;;;5043732;28;20223;-75
2023/01/07 05:54:40;;;;;;;26.60;16.17;;;8.40;99.90;;;;;;5033618;28;20261;-73
2023/01/07 05:57:06;;;;;;;28.43;15.37;;;8.40;99.90;;;;;;5035653;28;20170;-75
2023/01/07 05:59:33;;;;;;;29.80;16.83;;;8.40;99.90;;;;;;5035320;28;20208;-73
2023/01/07 06:02:00;;;;;;;31.27;16.90;;;8.50;99.90;;;;;;5035534;28;20193;-73
2023/01/07 06:04:26;;;;;;;23.40;15.10;;;8.40;99.90;;;;;;5033355;28;20866;-75
2023/01/07 06:06:51;;;;;;;27.67;15.50;;;8.40;99.90;;;;;;5035288;28;20406;-76
2023/01/07 06:09:17;;;;;;;27.30;15.37;;;8.50;99.90;;;;;;5043857;28;20402;-75
2023/01/07 06:11:43;;;;;;;21.10;15.10;;;8.50;99.90;;;;;;5035419;28;20182;-74
2023/01/07 06:14:09;;;;;;;23.20;14.57;;;8.50;99.90;;;;;;5035015;28;20188;-77
2023/01/07 06:16:34;;;;;;;25.03;14.40;;;8.40;99.90;;;;;;5034680;28;21076;-75
2023/01/07 06:19:00;;;;;;;18.20;13.00;;;8.50;99.90;;;;;;5035392;28;20271;-73
2023/01/07 06:21:26;;;;;;;26.27;14.63;;;8.50;99.90;;;;;;5035240;28;20172;-74
2023/01/07 06:23:52;;;;;;;22.07;14.30;;;8.50;99.90;;;;;;5034205;28;20181;-74
2023/01/07 06:26:18;;;;;;;24.83;15.03;;;8.50;99.90;;;;;;5034097;28;20386;-75
2023/01/07 06:28:44;;;;;;;23.97;14.20;;;8.50;99.90;;;;;;5033789;28;20180;-79
2023/01/07 06:31:10;;;;;;;21.30;13.90;;;8.50;99.90;;;;;;5037122;28;20435;-74
2023/01/07 06:33:36;;;;;;;23.87;13.43;;;8.50;99.90;;;;;;5035059;28;20209;-73
2023/01/07 06:36:03;;;;;;;21.13;13.57;;;8.60;99.90;;;;;;5034060;28;20784;-74
2023/01/07 06:38:29;;;;;;;21.90;14.23;;;8.60;99.90;;;;;;5033969;28;20389;-73
2023/01/07 06:40:57;;;;;;;22.23;14.40;;;8.60;1.00;;;;;;5053327;28;20427;-81
2023/01/07 06:43:23;;;;;;;27.03;15.50;;;8.60;1.00;;;;;;5054904;28;20925;-73
2023/01/07 06:45:49;;;;;;;22.63;14.17;;;8.70;1.00;;;;;;5040325;28;20437;-81
2023/01/07 06:48:14;;;;;;;20.03;13.80;;;8.80;1.00;;;;;;5034265;28;20885;-73
2023/01/07 06:50:40;;;;;;;24.33;15.67;;;8.90;1.00;;;;;;5034801;28;20340;-73
2023/01/07 06:53:06;;;;;;;24.00;14.00;;;9.00;1.00;;;;;;5033496;28;20579;-81
2023/01/07 06:55:32;;;;;;;24.47;15.70;;;9.00;1.00;;;;;;5032353;28;20200;-73
2023/01/07 06:57:57;;;;;;;24.03;15.00;;;9.10;1.00;;;;;;5034632;28;20243;-73
2023/01/07 07:00:23;;;;;;;28.17;17.30;;;9.10;1.00;;;;;;5034095;28;20183;-75
2023/01/07 07:02:49;;;;;;;33.70;18.10;;;9.20;1.00;;;;;;5034469;28;20218;-76
2023/01/07 07:05:14;;;;;;;25.27;16.30;;;9.30;1.00;;;;;;5042953;28;20200;-74
2023/01/07 07:07:40;;;;;;;26.57;16.13;;;9.30;1.00;;;;;;5033430;28;20711;-81
2023/01/07 07:10:07;;;;;;;25.20;15.80;;;9.30;1.00;;;;;;5052903;28;20230;-75
2023/01/07 07:12:35;;;;;;;23.70;16.07;;;9.40;1.00;;;;;;5037134;28;20621;-78
2023/01/07 07:15:00;;;;;;;23.13;15.63;;;9.40;1.00;;;;;;5033259;28;20479;-77
2023/01/07 07:17:26;;;;;;;25.27;14.80;;;9.50;1.00;;;;;;5049282;28;20827;-78
2023/01/07 07:19:52;;;;;;;27.70;17.23;;;9.40;1.00;;;;;;5051536;28;20187;-74
2023/01/07 07:22:17;;;;;;;29.87;15.87;;;9.50;1.00;;;;;;5038952;28;20223;-75
2023/01/07 07:24:43;;;;;;;26.80;15.57;;;9.50;1.00;;;;;;5032613;28;20198;-76
2023/01/07 07:27:09;;;;;;;28.53;16.70;;;9.50;1.00;;;;;;5045720;28;20189;-76
2023/01/07 07:29:34;;;;;;;27.23;15.93;;;9.50;1.00;;;;;;5053955;28;20172;-76
2023/01/07 07:32:00;;;;;;;22.50;14.77;;;9.50;1.00;;;;;;5035005;28;20192;-77
2023/01/07 07:34:26;;;;;;;25.93;15.20;;;9.60;1.00;;;;;;5032893;28;20190;-73
2023/01/07 07:36:51;;;;;;;26.53;17.27;;;9.60;1.00;;;;;;5049654;28;20178;-77
2023/01/07 07:39:18;;;;;;;25.70;15.00;;;9.60;1.00;;;;;;5046030;28;20185;-76
2023/01/07 07:41:44;;;;;;;33.03;16.40;;;9.60;1.00;;;;;;5047399;28;20636;-75
2023/01/07 07:44:10;;;;;;;26.17;16.80;;;9.60;1.00;;;;;;5048777;28;20450;-76
2023/01/07 07:46:35;;;;;;;27.13;16.33;;;9.60;1.00;;;;;;5031788;28;20227;-73
2023/01/07 07:49:01;;;;;;;25.40;16.40;;;9.70;1.00;;;;;;5035419;28;20386;-76
2023/01/07 07:51:27;;;;;;;21.27;15.43;;;9.70;1.00;;;;;;5053490;28;20178;-77
2023/01/07 07:53:52;;;;;;;27.13;15.73;;;9.70;1.00;;;;;;5039943;28;20178;-76
2023/01/07 07:56:18;;;;;;;21.53;13.20;;;9.80;1.00;;;;;;5051325;28;20238;-73
2023/01/07 07:58:44;;;;;;;26.57;16.13;;;9.70;1.00;;;;;;5047146;28;20184;-75
2023/01/07 08:01:09;;;;;;;27.43;16.73;;;9.80;1.00;;;;;;5050267;28;20629;-76
2023/01/07 08:03:35;;;;;;;23.60;15.90;;;9.80;1.00;;;;;;5048393;28;20213;-75
2023/01/07 08:06:03;;;;;;;26.90;16.27;;;9.80;1.00;;;;;;5037399;28;20285;-75
2023/01/07 08:08:29;;;;;;;25.20;16.00;;;9.80;1.00;;;;;;5052143;28;20291;-76
2023/01/07 08:10:55;;;;;;;24.13;15.27;;;9.80;1.00;;;;;;5051279;28;20520;-75
2023/01/07 08:13:22;;;;;;;26.20;15.57;;;9.80;1.00;;;;;;5053231;28;20196;-77
2023/01/07 08:15:47;;;;;;;23.67;16.30;;;9.80;1.00;;;;;;5034218;28;20466;-74
2023/01/07 08:18:13;;;;;;;26.30;15.87;;;9.90;1.00;;;;;;5033142;28;20803;-74
2023/01/07 08:20:39;;;;;;;31.03;15.93;;;9.90;1.00;;;;;;5048947;28;20177;-77
2023/01/07 08:23:07;;;;;;;25.40;15.70;;;9.90;1.00;;;;;;5052215;28;20240;-75
2023/01/07 08:25:33;;;;;;;27.67;16.97;;;10.00;1.00;;;;;;5050861;28;20925;-74
2023/01/07 08:28:00;;;;;;;26.90;16.73;;;10.00;1.00;;;;;;5046209;28;20398;-74
2023/01/07 08:30:26;;;;;;;22.40;15.50;;;10.00;1.00;;;;;;5032033;28;20434;-74
2023/01/07 08:32:52;;;;;;;23.80;15.60;;;10.00;1.00;;;;;;5037784;28;20421;-74
2023/01/07 08:35:18;;;;;;;24.90;16.70;;;10.00;1.00;;;;;;5051856;28;20430;-73
2023/01/07 08:37:44;;;;;;;24.20;15.00;;;10.00;1.00;;;;;;5047683;28;20229;-73
2023/01/07 08:40:11;;;;;;;29.13;16.23;;;10.00;1.00;;;;;;5033006;28;20171;-79
2023/01/07 08:42:37;;;;;;;26.83;17.10;;;10.00;1.00;;;;;;5035620;28;20400;-73
2023/01/07 08:45:07;;;;;;;27.57;16.97;;;10.00;1.00;;;;;;5050669;28;20447;-78
2023/01/07 08:47:33;;;;;;;23.07;15.63;;;10.10;1.00;;;;;;5050712;28;20394;-78
2023/01/07 08:49:59;;;;;;;21.87;14.37;;;10.10;1.00;;;;;;5031744;28;20412;-73
2023/01/07 08:52:25;;;;;;;22.10;13.20;;;10.10;1.00;;;;;;5033153;28;20171;-73
2023/01/07 08:54:51;;;;;;;20.47;14.27;;;10.10;1.00;;;;;;5035492;28;20662;-72
2023/01/07 08:57:17;;;;;;;25.80;14.77;;;10.10;1.00;;;;;;5036680;28;20409;-73
2023/01/07 08:59:43;;;;;;;21.87;14.47;;;10.10;1.00;;;;;;5055508;28;20422;-74
2023/01/07 09:02:13;;;;;;;22.00;15.60;;;10.20;1.00;;;;;;5055430;28;20412;-73
2023/01/07 09:04:39;;;;;;;23.80;16.20;;;10.20;1.00;;;;;;5054718;28;20432;-77
2023/01/07 09:07:05;;;;;;;23.73;17.23;;;10.20;1.00;;;;;;5056367;28;20892;-73
2023/01/07 09:09:30;;;;;;;23.77;15.23;;;10.10;1.00;;;;;;5056476;28;20178;-78
2023/01/07 09:11:56;;;;;;;22.13;14.03;;;10.20;1.00;;;;;;5056329;28;20182;-78
2023/01/07 09:14:22;;;;;;;26.47;16.90;;;10.20;1.00;;;;;;5055370;28;20190;-77
2023/01/07 09:16:47;;;;;;;24.67;15.97;;;10.20;1.00;;;;;;5055146;28;20543;-73
2023/01/07 09:19:13;;;;;;;21.03;14.40;;;10.20;1.00;;;;;;5056509;28;20674;-78
2023/01/07 09:21:39;;;;;;;22.97;15.53;;;10.20;1.00;;;;;;5055039;28;20265;-73
2023/01/07 09:24:05;;;;;;;23.83;16.27;;;10.20;1.00;;;;;;5056180;28;20193;-78
2023/01/07 09:26:30;;;;;;;22.43;14.67;;;10.20;1.00;;;;;;5054815;28;20178;-74
2023/01/07 09:28:56;;;;;;;24.40;15.83;;;10.20;1.00;;;;;;5055150;28;20189;-78
2023/01/07 09:31:22;;;;;;;24.83;15.47;;;10.30;1.00;;;;;;5055582;28;20526;-77
2023/01/07 09:33:48;;;;;;;26.83;15.10;;;10.20;1.00;;;;;;5055983;28;20182;-77
2023/01/07 09:36:13;;;;;;;26.63;17.23;;;10.30;1.00;;;;;;5055377;28;20296;-73
2023/01/07 09:38:39;;;;;;;28.40;17.70;;;10.30;1.00;;;;;;5056041;28;20445;-76
2023/01/07 09:41:36;;;;;;;25.63;17.20;;;10.20;1.00;;;;;;5055997;28;20258;-72
2023/01/07 09:44:17;;;;;;;29.73;18.53;;;10.20;1.00;;;;;;5051416;28;20179;-73
2023/01/07 09:46:44;;;;;;;25.83;17.10;;;10.30;1.00;;;;;;5053651;28;20472;-74
2023/01/07 09:49:17;;;;;;;32.70;18.90;;;10.30;1.00;;;;;;5053263;28;20414;-78
2023/01/07 09:51:46;;;;;;;27.57;17.40;;;10.30;1.00;;;;;;5054292;28;20917;-73
2023/01/07 09:54:33;;;;;;;29.90;19.00;;;10.40;1.00;;;;;;5053243;28;20494;-74
2023/01/07 09:56:59;;;;;;;27.63;17.90;;;10.40;1.00;;;;;;5054376;28;20461;-79
2023/01/07 09:59:25;;;;;;;25.63;16.50;;;10.40;1.00;;;;;;5054500;28;20853;-76
2023/01/07 10:02:25;;;;;;;25.17;17.30;;;10.40;1.00;;;;;;5054338;28;20870;-77
2023/01/07 10:05:14;;;;;;;27.87;16.97;;;10.40;1.00;;;;;;5052646;28;20221;-78
2023/01/07 10:08:17;;;;;;;29.47;18.17;;;10.50;1.00;;;;;;5053652;28;20384;-77
2023/01/07 10:11:11;;;;;;;26.87;18.60;;;10.50;1.00;;;;;;5054335;28;20781;-77
2023/01/07 10:13:58;;;;;;;28.53;18.47;;;10.40;1.00;;;;;;5053910;28;20402;-73
2023/01/07 10:16:56;;;;;;;26.80;18.37;;;10.50;1.00;;;;;;5053424;28;20616;-73
2023/01/07 10:19:43;;;;;;;24.30;18.17;;;10.40;1.00;;;;;;5054237;28;20391;-75
2023/01/07 10:22:29;;;;;;;28.00;18.83;;;10.50;1.00;;;;;;5054030;28;20488;-73
2023/01/07 10:25:12;;;;;;;30.20;18.33;;;10.60;1.00;;;;;;5051862;28;20507;-77
2023/01/07 10:37:28;;;;;;;29.90;19.40;;;10.60;1.00;;;;;;5070207;28;20548;-78
2023/01/07 10:40:19;;;;;;;31.87;19.97;;;10.50;1.00;;;;;;5070480;28;20401;-79
2023/01/07 10:42:51;;;;;;;31.40;20.00;;;10.60;1.00;;;;;;5069707;28;20392;-76
2023/01/07 10:45:38;;;;;;;33.33;20.03;;;10.60;1.00;;;;;;5069626;28;20406;-77
2023/01/07 10:48:29;;;;;;;30.77;19.03;;;10.60;1.00;;;;;;5070128;28;20370;-71
2023/01/07 10:51:11;;;;;;;30.37;20.57;;;10.60;1.00;;;;;;5070155;28;20388;-75
2023/01/07 10:53:56;;;;;;;29.83;19.37;;;10.60;1.00;;;;;;5070067;28;20879;-74
2023/01/07 10:56:33;;;;;;;30.73;19.20;;;10.60;1.00;;;;;;5069205;28;20431;-78
2023/01/07 10:58:59;;;;;;;28.63;19.57;;;10.50;1.00;;;;;;5068996;28;20401;-72
2023/01/07 11:01:33;;;;;;;31.40;21.63;;;10.50;1.00;;;;;;5069316;28;20466;-76
2023/01/07 11:04:00;;;;;;;31.47;21.20;;;10.50;1.00;;;;;;5068636;28;20245;-74
2023/01/07 11:06:46;;;;;;;27.90;19.07;;;10.50;1.00;;;;;;5069063;28;20797;-78
2023/01/07 11:09:26;;;;;;;29.00;20.73;;;10.50;1.00;;;;;;5069948;28;20446;-75
2023/01/07 11:11:54;;;;;;;35.20;22.20;;;10.50;1.00;;;;;;5068864;28;20423;-77
2023/01/07 11:14:29;;;;;;;30.83;19.60;;;10.50;1.00;;;;;;5068914;28;20441;-78
2023/01/07 11:17:41;;;;;;;35.27;20.80;;;10.50;1.00;;;;;;5069535;28;20881;-78
2023/01/07 11:20:07;;;;;;;31.20;22.17;;;10.50;1.00;;;;;;5068477;28;20412;-77
2023/01/07 11:22:35;;;;;;;31.57;20.80;;;10.50;1.00;;;;;;5069411;28;20412;-75
2023/01/07 11:25:25;;;;;;;29.90;20.53;;;10.50;1.00;;;;;;5068711;28;20416;-77
2023/01/07 11:27:51;;;;;;;31.93;20.57;;;10.50;1.00;;;;;;5069391;28;20416;-78
2023/01/07 11:30:27;;;;;;;29.00;20.47;;;10.50;1.00;;;;;;5069341;28;20379;-75
2023/01/07 11:32:58;;;;;;;27.00;18.60;;;10.50;1.00;;;;;;5069224;28;20206;-73
2023/01/07 11:35:24;;;;;;;27.90;20.77;;;10.50;1.00;;;;;;5066957;28;20481;-76
2023/01/07 11:37:51;;;;;;;28.43;18.27;;;10.50;1.00;;;;;;5067950;28;20376;-76
2023/01/07 11:40:24;;;;;;;27.07;17.90;;;10.60;1.00;;;;;;5068739;28;20371;-78
2023/01/07 11:42:53;;;;;;;27.60;18.87;;;10.60;1.00;;;;;;5067739;28;20528;-78
2023/01/07 11:45:20;;;;;;;25.37;18.00;;;10.60;1.00;;;;;;5068370;28;20400;-75
2023/01/07 11:48:04;;;;;;;26.63;18.17;;;10.50;1.00;;;;;;5059158;28;20408;-75
2023/01/07 11:50:42;;;;;;;25.30;18.53;;;10.50;1.00;;;;;;5054703;28;20769;-75
2023/01/07 11:53:14;;;;;;;26.67;19.00;;;10.60;1.00;;;;;;5055659;28;20408;-77
2023/01/07 11:55:56;;;;;;;30.87;21.17;;;10.50;1.00;;;;;;5054225;28;20543;-78
2023/01/07 11:58:24;;;;;;;26.50;19.33;;;10.50;1.00;;;;;;5055563;28;20397;-75
2023/01/07 12:01:03;;;;;;;29.07;19.47;;;10.50;1.00;;;;;;5055432;28;20379;-76
2023/01/07 12:03:29;;;;;;;24.47;18.27;;;10.60;1.00;;;;;;5054234;28;20415;-75
2023/01/07 12:06:05;;;;;;;25.50;17.70;;;10.60;1.00;;;;;;5054827;28;20923;-75
2023/01/07 12:08:31;;;;;;;25.20;17.70;;;10.60;1.00;;;;;;5055550;28;20170;-78
2023/01/07 12:11:04;;;;;;;23.27;17.20;;;10.60;1.00;;;;;;5053910;28;20471;-75
2023/01/07 12:13:31;;;;;;;28.13;18.10;;;10.60;1.00;;;;;;5055317;28;20383;-77
2023/01/07 12:16:03;;;;;;;26.07;18.20;;;10.60;1.00;;;;;;5053888;28;20427;-75
2023/01/07 12:19:19;;;;;;;26.23;17.20;;;10.60;1.00;;;;;;5055340;28;20375;-75
2023/01/07 12:22:07;;;;;;;25.47;17.67;;;10.70;1.00;;;;;;5053842;28;20835;-77
2023/01/07 12:24:53;;;;;;;21.90;15.90;;;10.70;1.00;;;;;;5054525;28;20652;-75
2023/01/07 12:27:34;;;;;;;20.93;15.20;;;10.60;99.90;;;;;;5053774;28;20884;-77
2023/01/07 12:30:38;;;;;;;22.20;16.30;;;10.70;99.90;;;;;;5055130;28;20364;-74
2023/01/07 12:33:42;;;;;;;17.50;13.57;;;10.70;99.90;;;;;;5054562;28;20448;-76
2023/01/07 12:36:15;;;;;;;24.63;16.83;;;10.60;99.90;;;;;;5042113;28;20447;-75
2023/01/07 12:38:51;;;;;;;20.03;14.23;;;10.70;99.90;;;;;;5054913;28;20939;-74
2023/01/07 12:41:29;;;;;;;19.70;14.70;;;10.70;99.90;;;;;;5054812;28;20405;-75
2023/01/07 12:44:08;;;;;;;16.40;14.00;;;10.80;99.90;;;;;;5053667;28;20442;-74
2023/01/07 12:46:51;;;;;;;19.17;14.80;;;10.80;99.90;;;;;;5054339;28;20400;-75
2023/01/07 12:49:24;;;;;;;18.90;13.27;;;10.80;99.90;;;;;;5054641;28;20382;-75
2023/01/07 12:51:54;;;;;;;17.80;13.73;;;10.90;99.90;;;;;;5052843;28;20384;-75
2023/01/07 12:54:31;;;;;;;20.27;15.17;;;10.80;99.90;;;;;;5052539;28;20407;-73
2023/01/07 12:57:05;;;;;;;19.30;15.00;;;10.80;99.90;;;;;;5054388;28;20919;-73
2023/01/07 12:59:47;;;;;;;14.33;12.80;;;10.80;99.90;;;;;;5053341;28;20410;-73
2023/01/07 13:02:31;;;;;;;16.77;13.07;;;10.80;99.90;;;;;;5054350;28;20390;-75
2023/01/07 13:05:11;;;;;;;16.57;11.67;;;10.80;99.90;;;;;;5053525;28;20745;-75
2023/01/07 13:07:42;;;;;;;13.87;11.80;;;10.80;99.90;;;;;;5053601;28;20394;-75
2023/01/07 13:10:22;;;;;;;12.50;10.77;;;10.80;99.90;;;;;;5054222;28;20459;-76
2023/01/07 13:12:57;;;;;;;14.07;12.57;;;10.80;99.90;;;;;;5054149;28;20404;-74
2023/01/07 13:15:34;;;;;;;12.07;10.77;;;10.80;99.90;;;;;;5053225;28;20938;-74